createdAt,value
2019-05-29T00:04:31.503Z,0.25
2019-05-29T00:09:35.529Z,1.00
2019-05-29T00:14:39.581Z,0.75
2019-05-29T00:19:43.717Z,0.00
2019-05-29T00:24:47.898Z,0.25
2019-05-29T00:29:51.958Z,0.50
2019-05-29T00:34:56.087Z,1.00
2019-05-29T00:40:00.199Z,0.00
2019-05-29T00:45:04.786Z,0.00
2019-05-29T00:50:09.904Z,0.00
2019-05-29T00:55:14.694Z,0.00
2019-05-29T01:00:19.476Z,0.00
2019-05-29T01:05:23.692Z,0.00
2019-05-29T01:10:28.008Z,0.50
2019-05-29T01:15:32.042Z,0.00
2019-05-29T01:20:36.146Z,0.40
2019-05-29T01:25:40.266Z,-0.20
2019-05-29T01:30:44.366Z,0.40
2019-05-29T01:35:48.421Z,0.00
2019-05-29T01:40:52.533Z,0.00
2019-05-29T01:45:56.717Z,0.00
2019-05-29T01:51:00.848Z,0.00
2019-05-29T01:56:04.979Z,0.00
2019-05-29T02:01:09.102Z,0.00
2019-05-29T02:06:13.212Z,0.25
2019-05-29T02:11:17.242Z,0.00
2019-05-29T02:16:22.635Z,0.00
2019-05-29T02:21:26.771Z,0.00
2019-05-29T02:26:30.850Z,0.00
2019-05-29T02:31:35.027Z,0.00
2019-05-29T02:36:39.105Z,0.00
2019-05-29T02:41:43.134Z,0.60
2019-05-29T02:46:47.166Z,0.00
2019-05-29T02:51:51.284Z,0.00
2019-05-29T02:56:55.309Z,0.00
2019-05-29T03:01:59.338Z,0.00
2019-05-29T03:07:03.621Z,0.00
2019-05-29T03:12:07.625Z,0.00
2019-05-29T03:17:11.834Z,0.00
2019-05-29T03:22:15.867Z,0.00
2019-05-29T03:27:19.870Z,0.00
2019-05-29T03:32:23.929Z,0.00
2019-05-29T03:37:28.276Z,0.00
2019-05-29T03:42:32.662Z,0.00
2019-05-29T03:47:37.232Z,0.00
2019-05-29T03:52:41.537Z,0.25
2019-05-29T03:57:45.567Z,0.50
2019-05-29T04:02:49.582Z,0.00
2019-05-29T04:07:53.665Z,1.00
2019-05-29T04:12:59.357Z,0.00
2019-05-29T04:18:04.853Z,0.00
2019-05-29T04:23:09.226Z,0.00
2019-05-29T04:28:13.337Z,0.00
2019-05-29T04:33:17.367Z,0.00
2019-05-29T04:38:21.404Z,0.00
2019-05-29T04:43:25.434Z,0.00
2019-05-29T04:48:31.373Z,0.00
2019-05-29T04:53:35.595Z,0.00
2019-05-29T04:58:40.005Z,0.00
2019-05-29T05:03:44.094Z,0.00
2019-05-29T05:08:48.136Z,0.00
2019-05-29T05:13:52.248Z,0.00
2019-05-29T05:18:56.275Z,0.00
2019-05-29T05:24:00.320Z,0.25
2019-05-29T05:29:04.476Z,0.00
2019-05-29T05:34:08.673Z,0.00
2019-05-29T05:39:12.776Z,0.00
2019-05-29T05:44:16.794Z,0.00
2019-05-29T05:49:20.881Z,0.00
2019-05-29T05:54:24.971Z,0.00
2019-05-29T05:59:29.008Z,0.00
2019-05-29T06:04:33.817Z,0.00
2019-05-29T06:09:38.262Z,0.00
2019-05-29T06:14:42.754Z,0.00
2019-05-29T06:19:46.868Z,0.25
2019-05-29T06:24:50.890Z,0.00
2019-05-29T06:29:54.944Z,0.00
2019-05-29T06:34:58.944Z,0.00
2019-05-29T06:40:03.054Z,0.00
2019-05-29T06:45:08.309Z,0.20
2019-05-29T06:50:12.938Z,0.00
2019-05-29T06:55:17.036Z,0.00
2019-05-29T07:00:34.815Z,0.00
2019-05-29T07:05:27.113Z,0.20
2019-05-29T07:10:31.274Z,0.00
2019-05-29T07:15:36.460Z,1.00
2019-05-29T07:20:40.736Z,2.00
2019-05-29T07:25:45.719Z,2.00
2019-05-29T07:31:00.138Z,1.50
2019-05-29T07:35:55.882Z,2.25
2019-05-29T07:41:00.010Z,2.75
2019-05-29T07:46:04.201Z,3.00
2019-05-29T07:51:08.229Z,2.00
2019-05-29T07:56:22.255Z,3.00
2019-05-29T08:01:18.348Z,2.00
2019-05-29T08:06:22.422Z,3.00
2019-05-29T08:11:26.557Z,3.00
2019-05-29T08:16:30.602Z,2.50
2019-05-29T08:21:34.620Z,1.75
2019-05-29T08:26:38.652Z,1.75
2019-05-29T08:31:42.805Z,3.75
2019-05-29T08:37:00.890Z,3.00
2019-05-29T08:42:18.104Z,2.25
2019-05-29T08:47:09.499Z,3.40
2019-05-29T08:52:11.705Z,3.00
2019-05-29T08:57:12.111Z,2.00
2019-05-29T09:02:16.134Z,2.00
2019-05-29T09:07:20.218Z,1.00
2019-05-29T09:12:24.311Z,2.00
2019-05-29T09:17:28.493Z,2.20
2019-05-29T09:22:32.593Z,2.25
2019-05-29T09:27:36.626Z,3.00
2019-05-29T09:32:50.549Z,3.50
2019-05-29T09:37:46.480Z,3.40
2019-05-29T09:42:50.591Z,3.80
2019-05-29T09:47:54.642Z,3.80
2019-05-29T09:53:00.290Z,3.00
2019-05-29T09:58:09.280Z,4.00
2019-05-29T10:03:13.487Z,2.50
2019-05-29T10:08:17.774Z,2.00
2019-05-29T10:13:22.329Z,2.00
2019-05-29T10:18:32.518Z,1.00
2019-05-29T10:23:32.358Z,1.00
2019-05-29T10:28:50.167Z,1.00
2019-05-29T10:33:42.491Z,2.00
2019-05-29T10:38:46.600Z,3.00
2019-05-29T10:43:51.335Z,3.00
2019-05-29T10:48:56.618Z,3.40
2019-05-29T10:54:00.998Z,3.50
2019-05-29T10:59:05.343Z,4.25
2019-05-29T11:04:09.513Z,3.40
2019-05-29T11:09:16.516Z,2.25
2019-05-29T11:14:20.554Z,3.50
2019-05-29T11:19:26.166Z,3.00
2019-05-29T11:24:30.447Z,2.00
2019-05-29T11:29:34.576Z,2.80
2019-05-29T11:34:38.634Z,2.80
2019-05-29T11:39:42.663Z,2.00
2019-05-29T11:44:46.791Z,1.00
2019-05-29T11:49:51.006Z,1.00
2019-05-29T11:54:58.003Z,1.25
2019-05-29T12:00:09.495Z,2.00
2019-05-29T12:05:07.953Z,1.20
2019-05-29T12:10:13.931Z,1.00
2019-05-29T12:15:20.826Z,0.20
2019-05-29T12:20:27.960Z,0.00
2019-05-29T12:25:30.804Z,0.00
2019-05-29T12:30:35.203Z,0.00
2019-05-29T12:35:39.229Z,0.00
2019-05-29T12:40:43.554Z,0.00
2019-05-29T12:45:47.676Z,0.00
2019-05-29T12:50:53.854Z,0.00
2019-05-29T12:55:58.371Z,0.00
2019-05-29T13:01:03.066Z,0.00
2019-05-29T13:06:08.580Z,0.00
2019-05-29T13:11:12.625Z,0.00
2019-05-29T13:16:16.660Z,0.00
2019-05-29T13:21:20.746Z,0.00
2019-05-29T13:26:24.971Z,0.00
2019-05-29T13:31:29.062Z,0.00
2019-05-29T13:36:33.120Z,0.00
2019-05-29T13:41:37.132Z,0.00
2019-05-29T13:46:41.151Z,0.00
2019-05-29T13:51:45.159Z,0.00
2019-05-29T13:56:49.321Z,0.00
2019-05-29T14:01:53.369Z,0.00
2019-05-29T14:06:58.574Z,0.00
2019-05-29T14:12:03.107Z,0.00
2019-05-29T14:17:08.660Z,0.00
2019-05-29T14:22:14.944Z,0.00
2019-05-29T14:27:18.701Z,0.00
2019-05-29T14:32:22.702Z,0.00
2019-05-29T14:37:26.727Z,0.00
2019-05-29T14:42:30.906Z,0.00
2019-05-29T14:47:34.997Z,0.00
2019-05-29T14:52:39.057Z,0.00
2019-05-29T14:57:43.075Z,0.00
2019-05-29T15:02:47.143Z,0.00
2019-05-29T15:07:51.359Z,0.00
2019-05-29T15:12:58.246Z,0.00
2019-05-29T15:18:01.527Z,0.00
2019-05-29T15:23:07.405Z,0.00
2019-05-29T15:28:13.610Z,0.00
2019-05-29T15:33:17.821Z,0.00
2019-05-29T15:38:22.109Z,0.00
2019-05-29T15:43:26.530Z,0.00
2019-05-29T15:48:30.864Z,0.00
2019-05-29T15:53:35.289Z,0.00
2019-05-29T15:58:39.565Z,0.00
2019-05-29T16:03:43.638Z,0.00
2019-05-29T16:08:47.794Z,0.00
2019-05-29T16:13:52.238Z,0.00
2019-05-29T16:18:56.748Z,0.00
2019-05-29T16:24:01.034Z,0.00
2019-05-29T16:29:05.333Z,0.00
2019-05-29T16:34:09.575Z,0.00
2019-05-29T16:39:13.686Z,0.00
2019-05-29T16:44:18.201Z,0.00
2019-05-29T16:49:23.088Z,0.00
2019-05-29T16:54:27.285Z,0.00
2019-05-29T16:59:31.371Z,0.00
2019-05-29T17:04:35.399Z,0.00
2019-05-29T17:09:39.431Z,0.00
2019-05-29T17:14:43.456Z,0.00
2019-05-29T17:19:47.496Z,0.00
2019-05-29T17:24:51.530Z,0.00
2019-05-29T17:29:55.560Z,0.00
2019-05-29T17:34:59.627Z,0.00
2019-05-29T17:40:04.008Z,0.00
2019-05-29T17:45:08.959Z,0.00
2019-05-29T17:50:18.011Z,0.00
2019-05-29T17:55:21.822Z,0.00
2019-05-29T18:00:26.739Z,0.00
2019-05-29T18:05:30.851Z,0.00
2019-05-29T18:10:35.006Z,0.00
2019-05-29T18:15:39.033Z,0.00
2019-05-29T18:20:43.138Z,0.00
2019-05-29T18:25:47.369Z,0.00
2019-05-29T18:30:51.390Z,0.00
2019-05-29T18:35:55.487Z,0.00
2019-05-29T18:40:59.605Z,0.00
2019-05-29T18:46:03.626Z,0.00
2019-05-29T18:51:07.710Z,0.00
2019-05-29T18:56:11.814Z,0.00
2019-05-29T19:01:16.157Z,0.00
2019-05-29T19:06:21.430Z,1.00
2019-05-29T19:11:25.927Z,2.40
2019-05-29T19:16:30.140Z,1.00
2019-05-29T19:21:34.155Z,0.60
2019-05-29T19:26:38.173Z,0.00
2019-05-29T19:31:42.684Z,0.60
2019-05-29T19:36:46.786Z,0.00
2019-05-29T19:41:50.794Z,0.00
2019-05-29T19:46:54.847Z,0.00
2019-05-29T19:51:58.978Z,0.00
2019-05-29T19:57:02.980Z,0.00
2019-05-29T20:02:07.757Z,0.00
2019-05-29T20:07:14.969Z,0.00
2019-05-29T20:12:18.981Z,0.00
2019-05-29T20:17:23.046Z,0.00
2019-05-29T20:22:28.464Z,0.00
2019-05-29T20:27:32.644Z,0.00
2019-05-29T20:32:36.875Z,0.00
2019-05-29T20:37:41.021Z,0.00
2019-05-29T20:42:46.161Z,0.00
2019-05-29T20:47:50.179Z,0.67
2019-05-29T20:52:54.298Z,0.00
2019-05-29T20:57:58.315Z,0.00
2019-05-29T21:03:02.323Z,0.00
2019-05-29T21:08:06.418Z,0.00
2019-05-29T21:13:10.435Z,0.00
2019-05-29T21:18:14.578Z,0.00
2019-05-29T21:23:18.626Z,0.00
2019-05-29T21:28:22.768Z,0.00
2019-05-29T21:33:26.761Z,0.00
2019-05-29T21:38:30.796Z,0.00
2019-05-29T21:43:34.825Z,0.00
2019-05-29T21:48:39.019Z,0.00
2019-05-29T21:53:43.440Z,0.00
2019-05-29T21:59:00.162Z,0.00
2019-05-29T22:03:53.605Z,0.00
2019-05-29T22:08:57.848Z,0.00
2019-05-29T22:14:01.983Z,0.00
2019-05-29T22:19:06.299Z,0.00
2019-05-29T22:24:10.689Z,0.00
2019-05-29T22:29:18.265Z,0.00
2019-05-29T22:34:20.515Z,0.00
2019-05-29T22:39:24.799Z,0.00
2019-05-29T22:44:29.023Z,0.00
2019-05-29T22:49:33.294Z,0.00
2019-05-29T22:54:37.355Z,0.00
2019-05-29T22:59:41.481Z,0.00
2019-05-29T23:04:45.614Z,0.00
2019-05-29T23:09:49.812Z,0.00
2019-05-29T23:14:54.433Z,0.00
2019-05-29T23:19:58.734Z,0.00
2019-05-29T23:25:03.299Z,0.00
2019-05-29T23:30:08.246Z,0.00
2019-05-29T23:35:12.549Z,0.00
2019-05-29T23:40:16.862Z,0.00
2019-05-29T23:45:20.975Z,0.00
2019-05-29T23:50:24.991Z,0.00
2019-05-29T23:55:29.064Z,0.00
